Time;durP1;ratioP1;P1;durP2;ratioP2;P2;SDS_P1;SDS_P2;PMS_P1;PMS_P2;Temp;Humidity;BMP_temperature;BMP_pressure;BME280_temperature;BME280_humidity;BME280_pressure;Samples;Min_cycle;Max_cycle;Signal;HPM_P1;HPM_P2
2022/04/10 00:00:09;;;;;;;12.95;6.80;;;6.50;99.90;;;;;;6246042;23;20457;-70
2022/04/10 00:02:35;;;;;;;18.15;7.47;;;6.50;99.90;;;;;;6246096;22;20006;-71
2022/04/10 00:05:01;;;;;;;17.88;7.03;;;6.50;99.90;;;;;;6243223;22;20036;-71
2022/04/10 00:07:26;;;;;;;21.73;7.57;;;6.50;99.90;;;;;;6245715;23;19996;-71
2022/04/10 00:09:52;;;;;;;13.73;6.80;;;6.50;99.90;;;;;;6245476;23;20004;-71
2022/04/10 00:12:17;;;;;;;12.75;6.60;;;6.50;99.90;;;;;;6246271;23;20004;-71
2022/04/10 00:14:45;;;;;;;16.75;7.72;;;6.40;99.90;;;;;;6244149;23;20000;-71
2022/04/10 00:17:11;;;;;;;16.70;8.30;;;6.50;99.90;;;;;;6245383;22;20482;-71
2022/04/10 00:19:38;;;;;;;13.45;7.40;;;6.50;99.90;;;;;;6244333;22;20004;-70
2022/04/10 00:22:04;;;;;;;15.50;7.72;;;6.50;99.90;;;;;;6245544;22;20004;-71
2022/04/10 00:24:29;;;;;;;16.83;6.97;;;6.50;99.90;;;;;;6243629;23;20087;-71
2022/04/10 00:26:55;;;;;;;12.88;6.88;;;6.50;99.90;;;;;;6245081;23;20007;-71
2022/04/10 00:29:20;;;;;;;16.33;7.43;;;6.50;99.90;;;;;;6245658;23;20429;-71
2022/04/10 00:31:46;;;;;;;16.23;6.40;;;6.50;99.90;;;;;;6246179;23;20035;-71
2022/04/10 00:34:12;;;;;;;14.57;6.95;;;6.60;99.90;;;;;;6244229;23;20008;-71
2022/04/10 00:36:37;;;;;;;16.02;7.60;;;6.60;99.90;;;;;;6245812;23;20032;-71
2022/04/10 00:39:03;;;;;;;15.05;7.70;;;6.60;99.90;;;;;;6245412;23;20000;-71
2022/04/10 00:41:30;;;;;;;17.00;7.68;;;6.50;99.90;;;;;;6245950;23;20004;-72
2022/04/10 00:44:07;;;;;;;14.30;6.88;;;6.60;99.90;;;;;;6243042;22;20032;-71
2022/04/10 00:46:33;;;;;;;12.52;6.90;;;6.50;99.90;;;;;;6245067;22;20050;-71
2022/04/10 00:48:58;;;;;;;15.45;8.00;;;6.60;99.90;;;;;;6245545;22;20369;-71
2022/04/10 00:51:43;;;;;;;14.32;7.78;;;6.60;99.90;;;;;;6245845;23;20103;-71
2022/04/10 00:54:12;;;;;;;14.98;7.45;;;6.60;99.90;;;;;;6246597;22;20004;-71
2022/04/10 00:56:39;;;;;;;14.40;7.00;;;6.60;99.90;;;;;;6245250;23;20007;-72
2022/04/10 00:59:05;;;;;;;17.30;7.85;;;6.60;99.90;;;;;;6243433;22;20008;-72
2022/04/10 01:01:32;;;;;;;12.63;7.70;;;6.60;99.90;;;;;;6245775;23;20321;-72
2022/04/10 01:03:58;;;;;;;12.65;7.43;;;6.60;99.90;;;;;;6243835;22;20016;-71
2022/04/10 01:06:24;;;;;;;14.15;7.85;;;6.70;99.90;;;;;;6243601;23;20015;-72
2022/04/10 01:08:50;;;;;;;16.13;7.93;;;6.60;99.90;;;;;;6244781;22;20004;-72
2022/04/10 01:11:16;;;;;;;13.90;8.50;;;6.70;99.90;;;;;;6243758;23;20058;-72
2022/04/10 01:13:43;;;;;;;21.23;9.70;;;6.70;99.90;;;;;;6245050;22;19997;-71
2022/04/10 01:16:09;;;;;;;17.25;7.95;;;6.70;99.90;;;;;;6244665;22;20004;-71
2022/04/10 01:18:35;;;;;;;12.48;8.07;;;6.70;99.90;;;;;;6244247;22;20051;-71
2022/04/10 01:21:03;;;;;;;16.10;8.13;;;6.70;99.90;;;;;;6245158;22;20004;-70
2022/04/10 01:23:30;;;;;;;14.90;8.18;;;6.80;99.90;;;;;;6243905;22;20047;-72
2022/04/10 01:25:56;;;;;;;15.40;8.65;;;6.80;99.90;;;;;;6245718;22;20004;-71
2022/04/10 01:28:21;;;;;;;13.93;8.13;;;6.80;99.90;;;;;;6243807;22;20000;-72
2022/04/10 01:30:47;;;;;;;13.98;7.70;;;6.80;99.90;;;;;;6245368;23;20077;-71
2022/04/10 01:33:13;;;;;;;15.50;7.82;;;6.80;99.90;;;;;;6243803;23;19996;-72
2022/04/10 01:35:38;;;;;;;15.77;8.73;;;6.80;99.90;;;;;;6245408;23;20004;-72
2022/04/10 01:38:06;;;;;;;16.33;8.93;;;6.80;99.90;;;;;;6241894;23;20098;-72
2022/04/10 01:40:33;;;;;;;15.57;8.43;;;6.80;99.90;;;;;;6245481;22;20066;-72
2022/04/10 01:42:59;;;;;;;20.95;9.63;;;6.80;99.90;;;;;;6245101;22;20000;-72
2022/04/10 01:45:24;;;;;;;16.55;9.90;;;6.80;99.90;;;;;;6241669;23;20008;-70
2022/04/10 01:47:51;;;;;;;18.63;11.07;;;6.80;99.90;;;;;;6245537;22;20023;-72
2022/04/10 01:50:17;;;;;;;23.33;11.30;;;6.80;99.90;;;;;;6243299;22;20015;-71
2022/04/10 01:52:43;;;;;;;15.15;10.02;;;6.90;99.90;;;;;;6245053;22;20004;-72
2022/04/10 01:55:09;;;;;;;21.60;10.85;;;6.90;99.90;;;;;;6243792;23;20436;-72
2022/04/10 01:57:35;;;;;;;17.73;8.98;;;6.90;99.90;;;;;;6244714;22;20011;-72
2022/04/10 02:00:00;;;;;;;18.08;9.10;;;6.90;99.90;;;;;;6242257;23;20016;-72
2022/04/10 02:02:26;;;;;;;12.70;8.40;;;6.90;99.90;;;;;;6244019;23;20006;-70
2022/04/10 02:04:52;;;;;;;13.98;7.90;;;6.80;99.90;;;;;;6244442;23;20019;-72
2022/04/10 02:07:18;;;;;;;13.50;8.52;;;6.80;99.90;;;;;;6243930;23;20373;-73
2022/04/10 02:09:43;;;;;;;15.77;8.15;;;6.80;99.90;;;;;;6243708;22;20464;-72
2022/04/10 02:12:10;;;;;;;17.33;9.30;;;6.80;99.90;;;;;;6244484;22;20000;-73
2022/04/10 02:14:35;;;;;;;16.83;8.35;;;6.80;99.90;;;;;;6245072;22;20493;-73
2022/04/10 02:17:01;;;;;;;16.98;8.57;;;6.80;99.90;;;;;;6245504;23;20034;-73
2022/04/10 02:19:27;;;;;;;15.63;7.78;;;6.80;99.90;;;;;;6243539;23;20079;-73
2022/04/10 02:21:54;;;;;;;15.77;7.85;;;6.80;99.90;;;;;;6244429;23;20004;-72
2022/04/10 02:24:20;;;;;;;18.55;8.98;;;6.80;99.90;;;;;;6243776;22;20016;-72
2022/04/10 02:26:46;;;;;;;15.70;7.32;;;6.80;99.90;;;;;;6244652;23;20491;-73
2022/04/10 02:29:11;;;;;;;13.75;7.88;;;6.90;99.90;;;;;;6242814;23;20473;-72
2022/04/10 02:31:37;;;;;;;19.35;8.23;;;6.90;99.90;;;;;;6244284;23;20326;-72
2022/04/10 02:34:03;;;;;;;15.20;8.10;;;6.90;99.90;;;;;;6243679;23;20015;-72
2022/04/10 02:36:28;;;;;;;12.23;6.97;;;6.90;99.90;;;;;;6245159;22;19997;-72
2022/04/10 02:38:54;;;;;;;15.52;7.93;;;6.90;99.90;;;;;;6244510;23;20000;-72
2022/04/10 02:41:20;;;;;;;11.82;7.78;;;7.00;99.90;;;;;;6242767;23;20004;-72
2022/04/10 02:43:46;;;;;;;12.93;7.32;;;7.00;99.90;;;;;;6244383;22;20046;-72
2022/04/10 02:46:11;;;;;;;11.65;7.72;;;6.90;99.90;;;;;;6242955;23;20007;-72
2022/04/10 02:48:37;;;;;;;13.13;7.22;;;7.00;99.90;;;;;;6244403;23;20004;-72
2022/04/10 02:51:03;;;;;;;11.02;7.05;;;6.90;99.90;;;;;;6245277;23;20008;-71
2022/04/10 02:53:29;;;;;;;13.50;7.30;;;7.00;99.90;;;;;;6242881;22;20008;-73
2022/04/10 02:55:55;;;;;;;14.45;7.50;;;7.00;99.90;;;;;;6244452;22;20001;-72
2022/04/10 02:58:21;;;;;;;16.35;8.02;;;7.00;99.90;;;;;;6243246;23;20487;-72
2022/04/10 03:00:47;;;;;;;12.65;7.10;;;7.00;99.90;;;;;;6244914;23;19996;-72
2022/04/10 03:03:13;;;;;;;13.93;7.10;;;7.00;99.90;;;;;;6243304;22;20488;-72
2022/04/10 03:05:39;;;;;;;13.88;7.25;;;7.00;99.90;;;;;;6244240;22;20004;-72
2022/04/10 03:08:05;;;;;;;11.60;7.13;;;6.90;99.90;;;;;;6245335;23;20378;-72
2022/04/10 03:10:31;;;;;;;12.55;7.20;;;7.00;99.90;;;;;;6243257;22;20377;-72
2022/04/10 03:12:57;;;;;;;12.38;7.55;;;7.00;99.90;;;;;;6244324;22;20003;-72
2022/04/10 03:15:22;;;;;;;12.60;6.95;;;7.00;99.90;;;;;;6243462;22;19996;-72
2022/04/10 03:17:48;;;;;;;12.48;7.15;;;7.00;99.90;;;;;;6244899;23;20004;-71
2022/04/10 03:20:13;;;;;;;13.20;7.28;;;7.00;99.90;;;;;;6243001;23;20008;-72
2022/04/10 03:22:39;;;;;;;12.05;6.70;;;7.00;99.90;;;;;;6244073;23;20333;-71
2022/04/10 03:25:05;;;;;;;16.05;7.88;;;7.00;99.90;;;;;;6244064;23;20018;-71
2022/04/10 03:27:32;;;;;;;15.48;8.10;;;7.00;99.90;;;;;;6244073;22;20431;-71
2022/04/10 03:29:58;;;;;;;14.15;7.40;;;7.00;99.90;;;;;;6245328;23;20058;-72
2022/04/10 03:32:23;;;;;;;14.93;7.50;;;7.00;99.90;;;;;;6244299;23;20004;-72
2022/04/10 03:34:49;;;;;;;14.02;6.75;;;6.90;99.90;;;;;;6242534;23;20016;-72
2022/04/10 03:37:14;;;;;;;11.82;6.90;;;7.00;99.90;;;;;;6244582;23;20007;-72
2022/04/10 03:39:40;;;;;;;15.27;7.43;;;7.00;99.90;;;;;;6244577;23;19996;-72
2022/04/10 03:42:06;;;;;;;13.50;7.30;;;7.00;99.90;;;;;;6240671;23;20004;-72
2022/04/10 03:44:32;;;;;;;12.57;7.40;;;6.90;99.90;;;;;;6245611;22;20039;-72
2022/04/10 03:46:57;;;;;;;12.32;7.22;;;6.90;99.90;;;;;;6245076;23;20000;-72
2022/04/10 03:49:23;;;;;;;9.93;6.45;;;6.90;99.90;;;;;;6245782;23;20384;-72
2022/04/10 03:51:48;;;;;;;14.10;7.07;;;7.00;99.90;;;;;;6246572;23;20008;-72
2022/04/10 03:54:14;;;;;;;17.52;7.43;;;6.90;99.90;;;;;;6246220;23;20413;-72
2022/04/10 03:56:40;;;;;;;11.52;6.53;;;6.90;99.90;;;;;;6242866;23;20091;-72
2022/04/10 03:59:05;;;;;;;15.30;7.15;;;6.90;99.90;;;;;;6246072;23;20008;-72
2022/04/10 04:01:31;;;;;;;11.75;6.90;;;6.90;99.90;;;;;;6246881;23;20004;-72
2022/04/10 04:03:56;;;;;;;11.40;6.68;;;6.90;99.90;;;;;;6245096;23;20019;-72
2022/04/10 04:06:22;;;;;;;13.57;6.82;;;6.90;99.90;;;;;;6244765;23;20000;-72
2022/04/10 04:08:47;;;;;;;12.45;6.50;;;6.90;99.90;;;;;;6243241;23;20032;-72
2022/04/10 04:11:13;;;;;;;15.95;7.00;;;6.90;99.90;;;;;;6244315;23;20004;-72
2022/04/10 04:13:40;;;;;;;10.98;6.82;;;6.80;99.90;;;;;;6244321;23;20000;-71
2022/04/10 04:16:06;;;;;;;11.23;7.35;;;6.80;99.90;;;;;;6244763;22;20420;-72
2022/04/10 04:18:32;;;;;;;13.95;7.18;;;6.80;99.90;;;;;;6246133;22;20303;-72
2022/04/10 04:20:58;;;;;;;14.95;7.47;;;6.80;99.90;;;;;;6246379;22;20022;-72
2022/04/10 04:23:24;;;;;;;11.30;6.57;;;6.80;99.90;;;;;;6244588;22;20402;-72
2022/04/10 04:25:50;;;;;;;16.33;7.47;;;6.70;99.90;;;;;;6245782;22;20022;-71
2022/04/10 04:28:16;;;;;;;14.85;7.22;;;6.70;99.90;;;;;;6244927;22;20356;-71
2022/04/10 04:30:41;;;;;;;13.15;6.68;;;6.70;99.90;;;;;;6245760;22;20396;-73
2022/04/10 04:33:07;;;;;;;15.35;7.43;;;6.70;99.90;;;;;;6245864;23;20360;-72
2022/04/10 04:35:34;;;;;;;13.38;7.13;;;6.70;99.90;;;;;;6242931;23;20036;-72
2022/04/10 04:38:00;;;;;;;14.35;7.22;;;6.70;99.90;;;;;;6245657;22;20414;-72
2022/04/10 04:40:26;;;;;;;15.23;6.57;;;6.70;99.90;;;;;;6245180;22;20008;-72
2022/04/10 04:42:52;;;;;;;14.68;7.00;;;6.70;99.90;;;;;;6243347;22;20303;-72
2022/04/10 04:45:18;;;;;;;13.10;7.72;;;6.70;99.90;;;;;;6245083;22;20493;-72
2022/04/10 04:47:44;;;;;;;10.05;6.80;;;6.60;99.90;;;;;;6244527;22;20007;-72
2022/04/10 04:50:10;;;;;;;11.68;7.32;;;6.70;99.90;;;;;;6244516;22;20479;-72
2022/04/10 04:52:36;;;;;;;12.25;7.70;;;6.60;99.90;;;;;;6245098;23;20004;-72
2022/04/10 04:55:01;;;;;;;13.70;7.20;;;6.70;99.90;;;;;;6244286;23;20000;-72
2022/04/10 04:57:27;;;;;;;13.32;8.13;;;6.70;99.90;;;;;;6246083;23;20023;-72
2022/04/10 04:59:53;;;;;;;15.00;9.02;;;6.70;99.90;;;;;;6243602;23;20065;-72
2022/04/10 05:02:18;;;;;;;16.08;9.75;;;6.70;99.90;;;;;;6240355;23;20000;-72
2022/04/10 05:04:44;;;;;;;14.38;8.63;;;6.70;99.90;;;;;;6244680;23;20092;-73
2022/04/10 05:07:09;;;;;;;14.13;8.93;;;6.70;99.90;;;;;;6242816;23;20311;-72
2022/04/10 05:09:35;;;;;;;20.42;10.30;;;6.60;99.90;;;;;;6245343;23;20000;-72
2022/04/10 05:12:00;;;;;;;19.65;9.30;;;6.70;99.90;;;;;;6243814;23;20426;-72
2022/04/10 05:14:26;;;;;;;14.60;8.82;;;6.70;99.90;;;;;;6244637;23;20010;-72
2022/04/10 05:16:52;;;;;;;19.77;10.98;;;6.60;99.90;;;;;;6244157;23;20718;-71
2022/04/10 05:19:17;;;;;;;13.18;8.50;;;6.50;99.90;;;;;;6244906;23;20004;-72
2022/04/10 05:21:43;;;;;;;17.42;9.88;;;6.50;99.90;;;;;;6243630;23;20009;-70
2022/04/10 05:24:09;;;;;;;14.48;9.73;;;6.50;99.90;;;;;;6243574;23;20012;-72
2022/04/10 05:26:34;;;;;;;19.00;10.82;;;6.50;99.90;;;;;;6245596;23;20418;-72
2022/04/10 05:29:00;;;;;;;17.45;10.52;;;6.50;99.90;;;;;;6242994;23;20008;-71
2022/04/10 05:31:25;;;;;;;12.05;7.07;;;6.50;99.90;;;;;;6244977;23;20058;-70
2022/04/10 05:33:51;;;;;;;14.32;7.65;;;6.50;99.90;;;;;;6245752;23;20325;-71
2022/04/10 05:36:17;;;;;;;14.02;8.20;;;6.40;99.90;;;;;;6244282;22;20000;-71
2022/04/10 05:38:45;;;;;;;17.73;9.75;;;6.50;99.90;;;;;;6244606;22;20007;-71
2022/04/10 05:41:12;;;;;;;16.50;9.73;;;6.50;99.90;;;;;;6245498;22;20000;-72
2022/04/10 05:43:37;;;;;;;21.20;10.48;;;6.50;99.90;;;;;;6242116;22;20015;-72
2022/04/10 05:46:03;;;;;;;20.88;11.93;;;6.50;99.90;;;;;;6244736;23;20004;-72
2022/04/10 05:48:29;;;;;;;17.23;10.35;;;6.50;99.90;;;;;;6241868;23;19996;-72
2022/04/10 05:50:54;;;;;;;22.05;11.30;;;6.50;99.90;;;;;;6245576;23;20011;-72
2022/04/10 05:53:20;;;;;;;16.02;11.35;;;6.50;99.90;;;;;;6243313;23;20083;-71
2022/04/10 05:55:46;;;;;;;19.13;11.85;;;6.50;99.90;;;;;;6242666;23;20031;-72
2022/04/10 05:58:11;;;;;;;20.95;12.18;;;6.50;99.90;;;;;;6242316;22;20003;-72
2022/04/10 06:00:37;;;;;;;15.23;12.45;;;6.60;99.90;;;;;;6244424;23;20054;-72
2022/04/10 06:03:04;;;;;;;21.85;13.45;;;6.60;99.90;;;;;;6245793;23;19996;-73
2022/04/10 06:05:30;;;;;;;21.15;14.23;;;6.50;99.90;;;;;;6243152;22;20004;-72
2022/04/10 06:07:56;;;;;;;25.10;13.98;;;6.60;99.90;;;;;;6244747;22;20001;-72
2022/04/10 06:10:22;;;;;;;21.58;13.68;;;6.60;99.90;;;;;;6244337;22;20028;-72
2022/04/10 06:12:48;;;;;;;22.65;13.60;;;6.60;99.90;;;;;;6244981;22;20004;-72
2022/04/10 06:15:17;;;;;;;24.50;13.95;;;6.60;99.90;;;;;;6242373;23;20050;-73
2022/04/10 06:17:43;;;;;;;23.92;14.00;;;6.60;99.90;;;;;;6243568;23;20039;-72
2022/04/10 06:20:10;;;;;;;25.80;16.20;;;6.60;99.90;;;;;;6242777;22;20004;-72
2022/04/10 06:22:36;;;;;;;27.38;15.23;;;6.50;99.90;;;;;;6244814;22;20004;-72
2022/04/10 06:25:01;;;;;;;21.10;14.57;;;6.60;99.90;;;;;;6243981;22;20011;-72
2022/04/10 06:27:27;;;;;;;24.17;14.52;;;6.70;99.90;;;;;;6243788;23;20004;-72
2022/04/10 06:29:52;;;;;;;23.42;14.63;;;6.70;99.90;;;;;;6243858;23;20004;-71
2022/04/10 06:32:18;;;;;;;26.77;15.23;;;6.60;99.90;;;;;;6244185;23;20471;-71
2022/04/10 06:34:44;;;;;;;27.95;14.75;;;6.70;99.90;;;;;;6244309;22;20463;-71
2022/04/10 06:37:10;;;;;;;22.58;13.57;;;6.80;99.90;;;;;;6244364;23;20032;-72
2022/04/10 06:39:36;;;;;;;24.80;13.25;;;6.90;99.90;;;;;;6244381;23;20334;-71
2022/04/10 06:42:05;;;;;;;24.58;14.18;;;6.90;99.90;;;;;;6242774;22;19996;-71
2022/04/10 06:44:30;;;;;;;21.73;13.02;;;7.00;99.90;;;;;;6243365;22;20039;-71
2022/04/10 06:46:56;;;;;;;18.92;12.90;;;7.20;99.90;;;;;;6243229;23;20078;-70
2022/04/10 06:49:22;;;;;;;20.20;13.13;;;7.10;99.90;;;;;;6243575;23;20009;-72
2022/04/10 06:51:47;;;;;;;23.25;13.15;;;7.10;99.90;;;;;;6244525;22;20008;-71
2022/04/10 06:54:13;;;;;;;16.35;10.95;;;7.20;99.90;;;;;;6244752;23;20479;-70
2022/04/10 06:56:39;;;;;;;20.63;10.85;;;7.30;99.90;;;;;;6243453;23;20004;-71
2022/04/10 06:59:04;;;;;;;23.48;11.15;;;7.30;99.90;;;;;;6241683;23;20138;-71
2022/04/10 07:01:30;;;;;;;23.88;12.05;;;7.20;99.90;;;;;;6244564;22;20410;-71
2022/04/10 07:03:58;;;;;;;21.73;12.43;;;7.30;99.90;;;;;;6242332;23;20104;-72
2022/04/10 07:06:23;;;;;;;25.45;11.90;;;7.40;99.90;;;;;;6244888;22;20512;-72
2022/04/10 07:08:49;;;;;;;19.48;11.15;;;7.40;99.90;;;;;;6242567;22;20004;-72
2022/04/10 07:11:15;;;;;;;18.45;11.23;;;7.40;99.90;;;;;;6244120;23;20088;-71
2022/04/10 07:13:40;;;;;;;15.77;9.82;;;7.50;99.90;;;;;;6244743;23;20001;-72
2022/04/10 07:16:06;;;;;;;28.52;10.75;;;7.50;99.90;;;;;;6242528;23;20353;-72
2022/04/10 07:18:32;;;;;;;21.38;10.13;;;7.60;99.90;;;;;;6244903;23;20071;-72
2022/04/10 07:20:57;;;;;;;19.08;11.30;;;7.70;99.90;;;;;;6245010;23;20011;-71
2022/04/10 07:23:42;;;;;;;21.80;10.20;;;7.80;99.90;;;;;;6244701;23;20011;-72
2022/04/10 07:26:09;;;;;;;16.30;9.77;;;7.90;99.90;;;;;;6244464;22;20333;-71
2022/04/10 07:28:35;;;;;;;15.38;9.73;;;8.00;99.90;;;;;;6245459;22;20007;-72
2022/04/10 07:31:00;;;;;;;15.93;8.38;;;8.10;99.90;;;;;;6245997;23;20008;-71
2022/04/10 07:33:26;;;;;;;15.70;8.38;;;8.10;99.90;;;;;;6246341;22;20000;-72
2022/04/10 07:35:52;;;;;;;14.68;8.02;;;8.20;99.90;;;;;;6243643;22;20088;-72
2022/04/10 07:38:18;;;;;;;16.55;7.78;;;8.40;99.90;;;;;;6244642;23;20047;-72
2022/04/10 07:40:44;;;;;;;12.48;6.78;;;8.50;99.90;;;;;;6243759;23;20003;-71
2022/04/10 07:43:10;;;;;;;12.38;6.72;;;8.50;99.90;;;;;;6245012;22;20010;-72
2022/04/10 07:48:20;;;;;;;15.10;7.55;;;8.80;99.90;;;;;;6244780;23;20036;-72
2022/04/10 07:50:46;;;;;;;12.50;7.38;;;8.90;99.90;;;;;;6246524;23;20004;-71
2022/04/10 07:53:12;;;;;;;12.15;6.47;;;9.00;99.90;;;;;;6242828;22;20365;-71
2022/04/10 07:55:38;;;;;;;12.38;5.95;;;9.10;99.90;;;;;;6245911;23;20000;-72
2022/04/10 07:58:03;;;;;;;12.95;6.18;;;9.30;99.90;;;;;;6244417;23;20000;-72
2022/04/10 08:00:32;;;;;;;13.35;5.82;;;9.40;99.90;;;;;;6243035;23;20319;-72
2022/04/10 08:03:01;;;;;;;12.38;5.75;;;9.60;99.90;;;;;;6245921;22;20325;-71
2022/04/10 08:05:27;;;;;;;9.63;4.40;;;9.70;99.90;;;;;;6244443;22;20097;-72
2022/04/10 08:07:53;;;;;;;9.05;3.22;;;9.90;99.90;;;;;;6244672;22;20000;-72
2022/04/10 08:10:19;;;;;;;7.75;3.67;;;10.00;99.90;;;;;;6244316;22;20465;-73
2022/04/10 08:12:45;;;;;;;8.75;3.50;;;10.20;99.90;;;;;;6243727;23;20035;-72
2022/04/10 08:15:11;;;;;;;7.75;3.90;;;10.20;99.90;;;;;;6243057;23;20529;-73
2022/04/10 08:17:38;;;;;;;8.05;3.90;;;10.20;99.90;;;;;;6245432;22;20000;-72
2022/04/10 08:20:04;;;;;;;7.57;4.03;;;10.40;99.90;;;;;;6246583;22;20008;-72
2022/04/10 08:22:32;;;;;;;8.95;3.45;;;10.40;99.90;;;;;;6242927;22;20004;-72
2022/04/10 08:25:02;;;;;;;7.75;3.72;;;10.50;99.90;;;;;;6245498;22;20008;-72
2022/04/10 08:27:29;;;;;;;6.75;3.47;;;10.60;99.90;;;;;;6243437;22;20003;-73
2022/04/10 08:29:55;;;;;;;4.47;2.88;;;10.60;99.90;;;;;;6243493;23;20151;-73
2022/04/10 08:32:21;;;;;;;8.38;3.13;;;10.70;99.90;;;;;;6242886;23;20032;-72
2022/04/10 08:34:47;;;;;;;7.55;2.38;;;10.80;99.90;;;;;;6244659;22;20004;-73
2022/04/10 08:37:13;;;;;;;4.95;2.63;;;11.10;99.90;;;;;;6241817;22;20020;-72
2022/04/10 08:39:38;;;;;;;7.18;2.83;;;11.20;99.90;;;;;;6240647;23;20011;-73
2022/04/10 08:42:06;;;;;;;10.43;2.70;;;11.30;99.90;;;;;;6244526;22;20046;-72
2022/04/10 08:44:32;;;;;;;9.88;2.70;;;11.30;99.90;;;;;;6244677;22;20101;-73
2022/04/10 08:47:00;;;;;;;5.68;3.13;;;11.30;99.90;;;;;;6242621;22;20003;-73
2022/04/10 08:49:26;;;;;;;7.22;3.30;;;11.40;99.90;;;;;;6244849;22;20038;-73
2022/04/10 08:51:53;;;;;;;5.20;2.03;;;11.60;99.90;;;;;;6242718;22;20011;-73
2022/04/10 08:54:20;;;;;;;5.70;2.47;;;11.70;99.90;;;;;;6243076;22;20004;-73
2022/04/10 08:56:46;;;;;;;6.78;2.88;;;11.70;99.90;;;;;;6245640;22;19996;-73
2022/04/10 08:59:12;;;;;;;5.20;2.78;;;11.80;99.90;;;;;;6241014;22;20338;-73
2022/04/10 09:01:37;;;;;;;5.03;2.60;;;12.00;99.90;;;;;;6244473;22;20054;-73
2022/04/10 09:04:04;;;;;;;8.40;3.33;;;12.00;99.90;;;;;;6243383;23;20009;-73
2022/04/10 09:06:29;;;;;;;12.43;2.92;;;12.20;99.90;;;;;;6244170;22;20004;-72
2022/04/10 09:09:18;;;;;;;4.90;2.75;;;12.10;99.90;;;;;;6242526;23;20091;-72
2022/04/10 09:11:44;;;;;;;5.72;3.40;;;12.00;99.90;;;;;;6240895;23;20004;-73
2022/04/10 09:14:10;;;;;;;4.50;3.33;;;12.10;99.90;;;;;;6244712;23;20448;-73
2022/04/10 09:16:36;;;;;;;5.18;3.58;;;12.10;99.90;;;;;;6243927;22;19992;-73
2022/04/10 09:19:09;;;;;;;7.18;3.65;;;12.20;99.90;;;;;;6243744;22;20257;-73
2022/04/10 09:21:36;;;;;;;;;;;12.40;99.90;;;;;;6243763;22;20004;-70
2022/04/10 09:24:03;;;;;;;4.57;2.65;;;12.60;99.90;;;;;;6244208;22;19915;-73
2022/04/10 09:26:51;;;;;;;5.72;2.70;;;12.50;99.90;;;;;;6242992;23;20547;-72
2022/04/10 09:29:19;;;;;;;6.25;2.80;;;12.30;99.90;;;;;;6267496;22;20465;-73
2022/04/10 09:31:45;;;;;;;6.28;2.65;;;12.40;99.90;;;;;;6244110;22;20007;-73
2022/04/10 09:34:15;;;;;;;11.07;3.40;;;12.60;99.90;;;;;;6244278;22;20083;-72
2022/04/10 09:36:58;;;;;;;5.65;2.53;;;12.80;99.90;;;;;;6243264;22;20008;-72
2022/04/10 09:39:36;;;;;;;4.70;3.05;;;13.10;99.90;;;;;;6242471;22;20133;-72
2022/04/10 09:42:04;;;;;;;5.72;2.72;;;13.00;99.90;;;;;;6244691;22;20023;-73
2022/04/10 09:44:32;;;;;;;2.97;1.85;;;12.90;99.00;;;;;;6241988;22;20359;-73
2022/04/10 09:47:06;;;;;;;5.00;2.17;;;12.70;99.90;;;;;;6244110;22;20026;-73
2022/04/10 09:49:40;;;;;;;4.63;2.17;;;13.00;99.90;;;;;;6244054;22;20011;-73
2022/04/10 09:52:11;;;;;;;4.05;2.22;;;13.40;99.40;;;;;;6244419;22;20004;-74
2022/04/10 09:54:44;;;;;;;5.30;3.08;;;13.60;98.50;;;;;;6244196;22;20004;-73
2022/04/10 09:57:14;;;;;;;9.32;2.70;;;13.60;97.70;;;;;;6243522;22;20010;-73
2022/04/10 09:59:43;;;;;;;3.83;2.92;;;13.60;96.70;;;;;;6244024;22;20008;-73
2022/04/10 10:02:12;;;;;;;6.32;3.15;;;13.60;99.10;;;;;;6242901;22;20497;-71
2022/04/10 10:04:39;;;;;;;4.88;2.75;;;13.40;98.50;;;;;;6243254;22;20501;-74
2022/04/10 10:07:08;;;;;;;6.65;2.85;;;13.10;97.70;;;;;;6242951;22;20326;-74
2022/04/10 10:09:35;;;;;;;5.40;2.50;;;12.90;99.20;;;;;;6243823;22;20028;-74
2022/04/10 10:12:02;;;;;;;6.07;2.53;;;13.10;98.20;;;;;;6244199;22;20000;-74
2022/04/10 10:14:31;;;;;;;5.72;2.40;;;13.30;97.50;;;;;;6241646;22;20070;-73
2022/04/10 10:16:58;;;;;;;4.65;2.45;;;13.50;97.50;;;;;;6241769;22;20408;-73
2022/04/10 10:19:25;;;;;;;6.07;2.70;;;13.70;97.40;;;;;;6242510;22;20028;-73
2022/04/10 10:21:53;;;;;;;4.03;2.63;;;13.80;98.10;;;;;;6243286;22;20034;-73
2022/04/10 10:24:21;;;;;;;5.18;2.58;;;13.60;96.90;;;;;;6244355;22;20012;-73
2022/04/10 10:26:55;;;;;;;3.40;2.40;;;13.30;95.90;;;;;;6242730;22;20000;-72
2022/04/10 10:29:51;;;;;;;3.97;2.33;;;13.10;95.90;;;;;;6241266;22;20019;-72
2022/04/10 10:32:39;;;;;;;3.70;1.83;;;13.30;94.60;;;;;;6242717;22;20306;-72
2022/04/10 10:35:06;;;;;;;2.50;1.67;;;13.30;93.10;;;;;;6266477;22;20314;-70
2022/04/10 10:37:52;;;;;;;3.10;2.05;;;13.50;92.70;;;;;;6244151;22;19996;-73
2022/04/10 10:40:20;;;;;;;4.72;2.65;;;13.80;94.60;;;;;;6243202;22;20007;-73
2022/04/10 10:42:48;;;;;;;4.50;2.30;;;14.00;94.20;;;;;;6244427;23;20006;-74
2022/04/10 10:45:48;;;;;;;4.05;1.92;;;14.10;93.90;;;;;;6244324;22;20015;-74
2022/04/10 10:48:32;;;;;;;3.92;1.70;;;14.40;93.10;;;;;;6194610;22;20069;-74
2022/04/10 10:51:10;;;;;;;6.88;2.15;;;14.60;94.00;;;;;;6241058;23;20424;-74
2022/04/10 10:53:56;;;;;;;3.17;1.95;;;14.30;93.50;;;;;;6244332;23;20379;-74
2022/04/10 10:56:31;;;;;;;3.72;2.33;;;14.40;93.10;;;;;;6270083;22;20407;-74
2022/04/10 10:59:19;;;;;;;4.10;2.00;;;14.20;94.60;;;;;;6270984;22;20016;-74
2022/04/10 11:02:10;;;;;;;4.03;2.20;;;14.60;94.50;;;;;;6246541;22;20087;-73
2022/04/10 11:04:50;;;;;;;5.65;2.30;;;14.80;93.20;;;;;;6246340;23;20087;-75
2022/04/10 11:07:18;;;;;;;7.40;2.40;;;15.00;93.60;;;;;;6245153;22;20004;-74
2022/04/10 11:09:47;;;;;;;3.67;2.33;;;15.10;92.70;;;;;;6246444;23;20001;-74
2022/04/10 11:12:14;;;;;;;4.88;2.30;;;15.00;93.50;;;;;;6247106;22;20071;-73
2022/04/10 11:14:41;;;;;;;4.68;2.10;;;14.70;92.40;;;;;;6245177;23;20091;-73
2022/04/10 11:17:32;;;;;;;3.58;2.42;;;14.30;93.90;;;;;;6246352;22;20000;-74
2022/04/10 11:20:02;;;;;;;4.38;2.55;;;14.30;94.00;;;;;;6234679;23;20062;-73
2022/04/10 11:22:37;;;;;;;4.07;2.25;;;14.40;93.40;;;;;;6246604;22;20083;-73
2022/04/10 11:25:09;;;;;;;4.20;1.70;;;14.60;93.10;;;;;;6246760;22;20042;-73
2022/04/10 11:27:53;;;;;;;5.35;2.15;;;14.70;91.00;;;;;;6246718;22;20476;-73
2022/04/10 11:30:29;;;;;;;3.67;1.92;;;14.80;91.10;;;;;;6246984;22;20000;-73
2022/04/10 11:33:04;;;;;;;5.18;2.00;;;15.00;91.20;;;;;;6244271;22;20088;-73
2022/04/10 11:35:32;;;;;;;3.88;2.40;;;15.20;90.90;;;;;;6246472;22;20517;-74
2022/04/10 11:38:00;;;;;;;2.42;1.73;;;15.20;90.80;;;;;;6244713;22;19996;-74
2022/04/10 11:40:35;;;;;;;3.10;2.13;;;15.00;90.10;;;;;;6246207;22;20417;-75
2022/04/10 11:43:02;;;;;;;2.40;1.90;;;15.10;91.90;;;;;;6246775;22;20004;-73
2022/04/10 11:45:32;;;;;;;3.85;2.20;;;15.30;92.60;;;;;;6245841;22;20418;-73
2022/04/10 11:47:59;;;;;;;6.32;1.80;;;15.20;90.20;;;;;;6245300;22;19997;-73
2022/04/10 11:50:29;;;;;;;4.50;1.80;;;15.00;91.10;;;;;;6244340;22;20016;-73
2022/04/10 11:53:04;;;;;;;3.10;1.88;;;15.00;91.20;;;;;;6245002;22;20011;-73
2022/04/10 11:55:38;;;;;;;4.50;2.10;;;15.20;86.80;;;;;;6245992;22;20000;-73
2022/04/10 11:58:18;;;;;;;3.75;1.88;;;15.40;89.00;;;;;;6245969;22;20337;-74
2022/04/10 12:00:55;;;;;;;3.70;2.50;;;15.30;89.20;;;;;;6246021;22;20008;-73
2022/04/10 12:03:25;;;;;;;7.50;2.22;;;15.10;87.20;;;;;;6244626;22;20057;-73
2022/04/10 12:05:52;;;;;;;3.25;1.90;;;14.90;87.30;;;;;;6246158;22;20105;-74
2022/04/10 12:08:19;;;;;;;4.78;2.33;;;14.70;88.80;;;;;;6245869;22;20000;-74
2022/04/10 12:10:58;;;;;;;3.42;2.20;;;14.50;89.60;;;;;;6245545;22;20007;-76
2022/04/10 12:13:34;;;;;;;5.88;2.65;;;14.30;90.20;;;;;;6245419;22;20031;-76
2022/04/10 12:16:11;;;;;;;4.80;3.00;;;14.10;90.80;;;;;;6243801;22;19996;-76
2022/04/10 12:18:50;;;;;;;4.80;2.58;;;14.20;92.70;;;;;;6245073;22;20447;-76
2022/04/10 12:21:17;;;;;;;5.68;2.65;;;14.30;91.90;;;;;;6244166;22;20006;-76
2022/04/10 12:23:42;;;;;;;7.50;3.50;;;14.60;92.00;;;;;;6244576;22;20099;-76
2022/04/10 12:26:09;;;;;;;6.13;3.05;;;14.80;90.80;;;;;;6244186;23;20036;-76
2022/04/10 12:28:37;;;;;;;5.65;3.03;;;15.00;89.00;;;;;;6245237;22;20079;-76
2022/04/10 12:31:03;;;;;;;4.57;2.72;;;15.30;90.20;;;;;;6245131;22;20086;-75
2022/04/10 12:33:30;;;;;;;4.57;2.80;;;15.30;90.70;;;;;;6242892;22;20004;-76
2022/04/10 12:35:56;;;;;;;5.88;2.97;;;15.30;89.80;;;;;;6244560;23;20004;-76
2022/04/10 12:38:28;;;;;;;4.10;2.90;;;15.60;90.00;;;;;;6243201;23;20087;-76
2022/04/10 12:41:03;;;;;;;6.03;2.80;;;15.60;89.30;;;;;;6245303;22;20004;-76
2022/04/10 12:43:29;;;;;;;6.82;2.90;;;15.60;91.10;;;;;;6242889;22;20058;-76
2022/04/10 12:46:11;;;;;;;4.07;2.33;;;15.50;90.40;;;;;;6245294;22;20000;-76
2022/04/10 12:48:37;;;;;;;5.63;2.22;;;15.60;90.00;;;;;;6267925;22;19996;-75
2022/04/10 12:51:05;;;;;;;3.20;2.20;;;15.80;89.50;;;;;;6245000;22;20059;-75